createdAt,value
2022-12-04T00:01:17.985Z,100011.06
2022-12-04T00:03:47.022Z,100005.84
2022-12-04T00:06:16.416Z,100007.94
2022-12-04T00:08:45.280Z,99997.34
2022-12-04T00:11:13.964Z,99997.94
2022-12-04T00:13:42.249Z,99984.97
2022-12-04T00:16:16.071Z,99994.84
2022-12-04T00:18:43.781Z,99996.34
2022-12-04T00:21:14.665Z,99999.00
2022-12-04T00:23:43.472Z,100006.56
2022-12-04T00:26:13.589Z,100005.81
2022-12-04T00:28:41.957Z,100010.00
2022-12-04T00:31:12.119Z,100009.72
2022-12-04T00:33:40.306Z,100015.28
2022-12-04T00:36:11.174Z,100011.94
2022-12-04T00:38:41.069Z,100016.84
2022-12-04T00:41:10.564Z,100010.13
2022-12-04T00:43:38.701Z,100011.28
2022-12-04T00:46:06.678Z,100009.66
2022-12-04T00:48:34.431Z,100019.06
2022-12-04T00:51:04.349Z,100010.63
2022-12-04T00:53:32.021Z,100010.88
2022-12-04T00:56:04.763Z,100014.63
2022-12-04T00:58:32.321Z,100021.63
2022-12-04T01:01:04.653Z,100028.44
2022-12-04T01:03:32.822Z,100022.78
2022-12-04T01:06:00.973Z,100012.34
2022-12-04T01:08:28.745Z,100011.06
2022-12-04T01:10:56.377Z,100012.09
2022-12-04T01:13:26.192Z,100000.41
2022-12-04T01:15:53.802Z,99993.03
2022-12-04T01:18:21.437Z,99987.69
2022-12-04T01:20:50.906Z,99984.97
2022-12-04T01:23:19.375Z,99984.94
2022-12-04T01:25:54.552Z,99980.09
2022-12-04T01:28:23.065Z,99979.72
2022-12-04T01:31:03.507Z,99979.84
2022-12-04T01:33:32.146Z,99978.22
2022-12-04T01:36:00.925Z,99976.06
2022-12-04T01:38:29.476Z,99972.25
2022-12-04T01:40:58.231Z,99969.94
2022-12-04T01:43:27.532Z,99964.38
2022-12-04T01:45:56.465Z,99972.72
2022-12-04T01:48:30.702Z,99971.84
2022-12-04T01:51:05.748Z,99971.84
2022-12-04T01:53:36.043Z,99978.44
2022-12-04T01:56:05.014Z,99977.75
2022-12-04T01:58:38.721Z,99981.53
2022-12-04T02:01:09.151Z,99977.75
2022-12-04T02:03:39.884Z,99982.56
2022-12-04T02:06:11.000Z,99980.66
2022-12-04T02:08:39.322Z,99974.34
2022-12-04T02:11:18.977Z,99981.72
2022-12-04T02:13:57.824Z,99979.66
2022-12-04T02:16:32.218Z,99979.13
2022-12-04T02:19:16.444Z,99993.03
2022-12-04T02:21:47.778Z,99993.25
2022-12-04T02:24:46.747Z,99989.22
2022-12-04T02:27:35.931Z,99996.72
2022-12-04T02:30:08.947Z,99988.03
2022-12-04T02:32:41.764Z,99988.59
2022-12-04T02:35:15.894Z,99980.81
2022-12-04T02:37:46.624Z,99986.66
2022-12-04T02:40:22.337Z,99989.38
2022-12-04T02:42:58.384Z,100001.00
2022-12-04T02:45:32.177Z,100008.72
2022-12-04T02:48:02.040Z,99996.53
2022-12-04T02:50:31.622Z,99999.88
2022-12-04T02:53:05.789Z,99999.59
2022-12-04T02:55:36.695Z,99992.06
2022-12-04T02:58:10.540Z,99992.59
2022-12-04T03:00:43.024Z,99989.78
2022-12-04T03:03:17.313Z,99980.88
2022-12-04T03:05:50.588Z,99987.81
2022-12-04T03:08:22.409Z,99983.16
2022-12-04T03:10:52.970Z,99986.84
2022-12-04T03:13:25.106Z,99981.81
2022-12-04T03:16:01.448Z,99982.69
2022-12-04T03:18:34.085Z,99973.31
2022-12-04T03:21:07.442Z,99970.28
2022-12-04T03:23:42.245Z,99974.00
2022-12-04T03:26:15.686Z,99980.91
2022-12-04T03:28:51.999Z,99980.25
2022-12-04T03:31:27.103Z,99983.72
2022-12-04T03:33:58.762Z,99980.25
2022-12-04T03:36:32.029Z,99979.91
2022-12-04T03:39:04.433Z,99978.25
2022-12-04T03:41:49.873Z,99985.09
2022-12-04T03:44:23.736Z,99980.47
2022-12-04T03:46:58.350Z,99986.94
2022-12-04T03:49:33.378Z,99977.28
2022-12-04T03:52:05.866Z,99982.16
2022-12-04T03:54:36.063Z,99979.44
2022-12-04T03:57:09.944Z,99977.72
2022-12-04T03:59:41.752Z,99966.59
2022-12-04T04:02:17.218Z,99964.09
2022-12-04T04:04:50.668Z,99966.63
2022-12-04T04:07:24.075Z,99971.59
2022-12-04T04:09:57.779Z,99962.56
2022-12-04T04:12:29.960Z,99964.88
2022-12-04T04:15:19.996Z,99959.94
2022-12-04T04:18:08.589Z,99953.75
2022-12-04T04:20:57.391Z,99953.00
2022-12-04T04:23:45.210Z,99949.38
2022-12-04T04:26:14.310Z,99949.13
2022-12-04T04:28:43.724Z,99949.03
2022-12-04T04:31:22.221Z,99944.88
2022-12-04T04:34:00.698Z,99952.44
2022-12-04T04:36:38.586Z,99952.72
2022-12-04T04:39:15.865Z,99953.97
2022-12-04T04:41:49.895Z,99956.50
2022-12-04T04:44:23.673Z,99946.00
2022-12-04T04:46:56.456Z,99946.22
2022-12-04T04:49:29.125Z,99954.69
2022-12-04T04:51:58.208Z,99958.31
2022-12-04T04:54:27.627Z,99960.94
2022-12-04T04:56:55.142Z,99954.47
2022-12-04T04:59:22.843Z,99960.75
2022-12-04T05:01:50.610Z,99962.22
2022-12-04T05:04:18.226Z,99964.75
2022-12-04T05:06:48.872Z,99951.91
2022-12-04T05:09:16.464Z,99963.81
2022-12-04T05:11:44.048Z,99959.09
2022-12-04T05:14:11.582Z,99960.75
2022-12-04T05:16:40.165Z,99952.16
2022-12-04T05:19:25.722Z,99963.72
2022-12-04T05:21:54.717Z,99951.97
2022-12-04T05:24:22.246Z,99948.88
2022-12-04T05:26:49.791Z,99936.09
2022-12-04T05:29:17.355Z,99938.19
2022-12-04T05:31:45.064Z,99941.69
2022-12-04T05:34:12.674Z,99945.53
2022-12-04T05:36:40.335Z,99938.00
2022-12-04T05:39:09.285Z,99938.59
2022-12-04T05:41:36.842Z,99948.22
2022-12-04T05:44:04.396Z,99942.47
2022-12-04T05:46:32.099Z,99945.88
2022-12-04T05:48:59.713Z,99951.06
2022-12-04T05:51:27.324Z,99951.56
2022-12-04T05:53:54.904Z,99954.19
2022-12-04T05:56:23.871Z,99955.34
2022-12-04T05:58:51.524Z,99956.03
2022-12-04T06:01:21.427Z,99953.53
2022-12-04T06:03:49.331Z,99953.38
2022-12-04T06:06:21.851Z,99957.84
2022-12-04T06:08:54.302Z,99955.88
2022-12-04T06:11:25.274Z,99960.25
2022-12-04T06:13:53.358Z,99959.41
2022-12-04T06:16:23.985Z,99961.78
2022-12-04T06:18:52.834Z,99958.41
2022-12-04T06:21:21.014Z,99969.25
2022-12-04T06:23:48.819Z,99970.91
2022-12-04T06:26:17.050Z,99963.69
2022-12-04T06:28:46.197Z,99966.47
2022-12-04T06:31:16.353Z,99968.72
2022-12-04T06:33:44.062Z,99971.53
2022-12-04T06:36:13.528Z,99972.75
2022-12-04T06:38:41.777Z,99969.28
2022-12-04T06:41:12.616Z,99955.63
2022-12-04T06:43:40.637Z,99954.91
2022-12-04T06:46:13.050Z,99963.84
2022-12-04T06:48:42.331Z,99954.94
2022-12-04T06:51:12.377Z,99963.00
2022-12-04T06:53:40.720Z,99960.50
2022-12-04T06:56:10.448Z,99966.38
2022-12-04T06:58:38.142Z,99962.44
2022-12-04T07:01:11.621Z,99958.16
2022-12-04T07:03:41.692Z,99965.09
2022-12-04T07:06:13.172Z,99968.72
2022-12-04T07:08:40.797Z,99956.75
2022-12-04T07:11:08.796Z,99957.19
2022-12-04T07:13:36.960Z,99957.03
2022-12-04T07:16:06.986Z,99954.94
2022-12-04T07:18:37.266Z,99951.47
2022-12-04T07:21:08.994Z,99959.00
2022-12-04T07:23:37.273Z,99953.38
2022-12-04T07:26:06.825Z,99955.34
2022-12-04T07:28:38.786Z,99951.47
2022-12-04T07:31:07.792Z,99953.97
2022-12-04T07:33:37.384Z,99946.28
2022-12-04T07:36:07.728Z,99957.16
2022-12-04T07:38:35.917Z,99953.53
2022-12-04T07:41:05.687Z,99950.91
2022-12-04T07:43:34.654Z,99943.63
2022-12-04T07:46:06.270Z,99946.44
2022-12-04T07:48:33.984Z,99946.44
2022-12-04T07:51:08.934Z,99950.34
2022-12-04T07:53:36.818Z,99943.81
2022-12-04T07:56:05.535Z,99953.53
2022-12-04T07:58:34.216Z,99955.63
2022-12-04T08:01:10.776Z,99954.63
2022-12-04T08:03:43.498Z,99954.78
2022-12-04T08:06:16.890Z,99966.28
2022-12-04T08:08:44.482Z,99970.66
2022-12-04T08:11:14.105Z,99975.22
2022-12-04T08:13:41.762Z,99981.09
2022-12-04T08:16:11.210Z,99985.44
2022-12-04T08:18:39.846Z,99980.66
2022-12-04T08:21:09.717Z,99984.69
2022-12-04T08:23:39.572Z,99982.56
2022-12-04T08:26:07.622Z,99982.59
2022-12-04T08:28:36.126Z,99982.16
2022-12-04T08:31:04.627Z,99982.72
2022-12-04T08:33:32.465Z,99976.31
2022-12-04T08:36:00.429Z,99983.13
2022-12-04T08:38:28.222Z,99967.81
2022-12-04T08:41:01.048Z,99970.34
2022-12-04T08:43:28.744Z,99972.78
2022-12-04T08:45:58.073Z,99974.47
2022-12-04T08:48:25.768Z,99968.53
2022-12-04T08:50:53.632Z,99967.06
2022-12-04T08:53:21.620Z,99971.81
2022-12-04T08:55:49.292Z,99966.91
2022-12-04T08:58:18.784Z,99969.66
2022-12-04T09:00:46.575Z,99966.50
2022-12-04T09:03:16.457Z,99961.09
2022-12-04T09:05:45.725Z,99952.72
2022-12-04T09:08:14.408Z,99957.19
2022-12-04T09:10:42.755Z,99948.09
2022-12-04T09:13:10.462Z,99950.66
2022-12-04T09:15:41.275Z,99953.25
2022-12-04T09:18:09.306Z,99958.56
2022-12-04T09:20:37.425Z,99957.59
2022-12-04T09:23:06.097Z,99957.28
2022-12-04T09:25:36.488Z,99958.22
2022-12-04T09:28:04.576Z,99966.88
2022-12-04T09:30:33.727Z,99971.16
2022-12-04T09:33:02.648Z,99967.50
2022-12-04T09:35:30.737Z,99960.97
2022-12-04T09:37:59.428Z,99956.63
2022-12-04T09:40:36.856Z,99952.56
2022-12-04T09:43:17.650Z,99958.28
2022-12-04T09:45:49.763Z,99958.69
2022-12-04T09:48:21.182Z,99956.00
2022-12-04T09:50:51.006Z,99946.34
2022-12-04T09:53:22.609Z,99953.34
2022-12-04T09:55:57.287Z,99950.66
2022-12-04T09:58:29.466Z,99957.19
2022-12-04T10:00:58.445Z,99961.88
2022-12-04T10:03:30.093Z,99954.69
2022-12-04T10:06:05.268Z,99953.94
2022-12-04T10:08:36.380Z,99954.38
2022-12-04T10:11:11.312Z,99952.72
2022-12-04T10:13:53.186Z,99951.75
2022-12-04T10:16:25.151Z,99955.00
2022-12-04T10:19:04.086Z,99947.88
2022-12-04T10:21:40.573Z,99944.19
2022-12-04T10:24:19.977Z,99955.38
2022-12-04T10:26:49.701Z,99938.59
2022-12-04T10:29:22.325Z,99941.50
2022-12-04T10:31:52.442Z,99935.84
2022-12-04T10:34:26.279Z,99927.28
2022-12-04T10:36:56.104Z,99928.13
2022-12-04T10:39:26.878Z,99915.72
2022-12-04T10:42:01.943Z,99908.53
2022-12-04T10:44:29.569Z,99915.63
2022-12-04T10:47:01.334Z,99916.41
2022-12-04T10:49:33.288Z,99916.41
2022-12-04T10:52:01.335Z,99918.84
2022-12-04T10:54:33.454Z,99920.66
2022-12-04T10:57:02.551Z,99906.41
2022-12-04T10:59:30.802Z,99902.41
2022-12-04T11:02:07.241Z,99893.25
2022-12-04T11:04:36.602Z,99896.66
2022-12-04T11:07:06.460Z,99888.41
2022-12-04T11:09:34.810Z,99881.72
2022-12-04T11:12:17.772Z,99885.50
2022-12-04T11:14:47.190Z,99884.56
2022-12-04T11:17:18.602Z,99872.91
2022-12-04T11:19:47.521Z,99873.75
2022-12-04T11:22:18.571Z,99856.28
2022-12-04T11:24:52.967Z,99860.81
2022-12-04T11:27:24.727Z,99865.78
2022-12-04T11:29:53.104Z,99862.88
2022-12-04T11:32:23.739Z,99865.09
2022-12-04T11:34:56.495Z,99857.25
2022-12-04T11:37:27.334Z,99853.78
2022-12-04T11:39:56.379Z,99852.47
2022-12-04T11:42:26.214Z,99860.38
2022-12-04T11:44:56.939Z,99846.16
2022-12-04T11:47:27.054Z,99841.72
2022-12-04T11:50:11.433Z,99844.25
2022-12-04T11:52:59.916Z,99841.63
2022-12-04T11:55:34.258Z,99846.97
2022-12-04T11:58:25.683Z,99845.00
2022-12-04T12:01:00.529Z,99851.09
2022-12-04T12:03:35.592Z,99849.91
2022-12-04T12:06:26.522Z,99847.66
2022-12-04T12:09:04.935Z,99854.50
2022-12-04T12:11:37.123Z,99859.16
2022-12-04T12:14:09.757Z,99861.84
2022-12-04T12:19:39.178Z,99860.75
2022-12-04T12:22:21.654Z,99861.56
2022-12-04T12:24:59.322Z,99867.84
2022-12-04T12:27:47.400Z,99864.81
2022-12-04T12:30:17.714Z,99876.16
2022-12-04T12:33:01.836Z,99875.25
2022-12-04T12:35:33.730Z,99874.72
2022-12-04T12:38:06.289Z,99866.22
2022-12-04T12:40:39.492Z,99874.81
2022-12-04T12:43:12.976Z,99874.25
2022-12-04T12:45:46.899Z,99873.19
2022-12-04T12:48:26.540Z,99866.94
2022-12-04T12:51:22.012Z,99861.44
2022-12-04T12:53:53.514Z,99873.63
2022-12-04T12:56:30.822Z,99875.94
2022-12-04T12:59:01.670Z,99874.22
2022-12-04T13:01:39.231Z,99872.88
2022-12-04T13:04:12.685Z,99871.41
2022-12-04T13:06:42.805Z,99872.41
2022-12-04T13:09:19.241Z,99869.84
2022-12-04T13:11:49.593Z,99866.78
2022-12-04T13:14:17.234Z,99861.22
2022-12-04T13:16:48.253Z,99850.69
2022-12-04T13:19:21.048Z,99843.34
2022-12-04T13:21:58.565Z,99843.16
2022-12-04T13:25:05.067Z,99836.78
2022-12-04T13:27:46.219Z,99839.41
2022-12-04T13:30:19.096Z,99841.16
2022-12-04T13:33:04.809Z,99839.50
2022-12-04T13:35:50.247Z,99827.09
2022-12-04T13:38:29.299Z,99828.34
2022-12-04T13:41:01.331Z,99827.03
2022-12-04T13:43:34.547Z,99822.41
2022-12-04T13:46:05.946Z,99821.41
2022-12-04T13:48:39.760Z,99819.91
2022-12-04T13:51:27.241Z,99819.44
2022-12-04T13:54:20.471Z,99817.41
2022-12-04T13:56:51.406Z,99823.72
2022-12-04T13:59:25.415Z,99820.03
2022-12-04T14:01:55.525Z,99814.00
2022-12-04T14:04:28.179Z,99806.22
2022-12-04T14:06:59.849Z,99804.72
2022-12-04T14:09:30.015Z,99796.19
2022-12-04T14:12:03.926Z,99796.16
2022-12-04T14:14:38.946Z,99797.28
2022-12-04T14:17:17.947Z,99792.13
2022-12-04T14:19:52.095Z,99801.84
2022-12-04T14:22:29.081Z,99803.66
2022-12-04T14:25:07.278Z,99799.69
2022-12-04T14:27:45.685Z,99794.88
2022-12-04T14:30:20.150Z,99798.69
2022-12-04T14:32:49.976Z,99807.44
2022-12-04T14:35:20.886Z,99811.22
2022-12-04T14:37:56.100Z,99810.88
2022-12-04T14:40:26.860Z,99823.53
2022-12-04T14:42:56.823Z,99821.00
2022-12-04T14:45:35.218Z,99825.25
2022-12-04T14:48:24.365Z,99820.66
2022-12-04T14:51:00.725Z,99828.00
2022-12-04T14:53:37.041Z,99831.00
2022-12-04T14:56:19.240Z,99833.63
2022-12-04T14:58:48.220Z,99828.53
2022-12-04T15:01:29.092Z,99829.31
2022-12-04T15:04:02.099Z,99830.00
2022-12-04T15:06:33.477Z,99833.63
2022-12-04T15:09:17.195Z,99830.69
2022-12-04T15:12:06.865Z,99834.19
2022-12-04T15:14:43.765Z,99830.16
2022-12-04T15:17:12.502Z,99826.63
2022-12-04T15:19:40.692Z,99830.84
2022-12-04T15:22:14.120Z,99841.19
2022-12-04T15:24:42.030Z,99832.50
2022-12-04T15:27:09.739Z,99833.50
2022-12-04T15:29:42.722Z,99837.56
2022-12-04T15:32:13.109Z,99842.88
2022-12-04T15:34:44.181Z,99838.97
2022-12-04T15:37:19.932Z,99832.38
2022-12-04T15:39:49.880Z,99838.69
2022-12-04T15:42:29.426Z,99845.09
2022-12-04T15:45:01.075Z,99847.03
2022-12-04T15:47:32.818Z,99850.69
2022-12-04T15:50:09.941Z,99851.22
2022-12-04T15:52:38.287Z,99851.56
2022-12-04T15:55:08.942Z,99848.19
2022-12-04T15:57:39.531Z,99845.94
2022-12-04T16:00:26.242Z,99853.22
2022-12-04T16:02:56.011Z,99852.78
2022-12-04T16:05:36.403Z,99854.59
2022-12-04T16:08:23.563Z,99849.63
2022-12-04T16:11:00.510Z,99852.59
2022-12-04T16:13:31.517Z,99861.28
2022-12-04T16:16:02.105Z,99854.75
2022-12-04T16:18:31.111Z,99855.72
2022-12-04T16:20:59.495Z,99858.06
2022-12-04T16:23:27.897Z,99856.41
2022-12-04T16:25:55.633Z,99853.69
2022-12-04T16:28:23.420Z,99857.34
2022-12-04T16:30:52.530Z,99857.34
2022-12-04T16:33:20.513Z,99859.16
2022-12-04T16:35:50.111Z,99854.97
2022-12-04T16:38:18.437Z,99859.44
2022-12-04T16:40:48.417Z,99862.78
2022-12-04T16:43:18.019Z,99860.84
2022-12-04T16:45:48.920Z,99846.88
2022-12-04T16:48:16.599Z,99854.00
2022-12-04T16:50:45.256Z,99848.47
2022-12-04T16:53:17.753Z,99842.50
2022-12-04T16:55:46.984Z,99841.28
2022-12-04T16:58:15.085Z,99847.34
2022-12-04T17:00:44.346Z,99840.84
2022-12-04T17:03:18.683Z,99830.84
2022-12-04T17:05:46.326Z,99836.00
2022-12-04T17:08:15.319Z,99839.47
2022-12-04T17:10:42.970Z,99833.72
2022-12-04T17:13:12.834Z,99834.41
2022-12-04T17:15:40.453Z,99839.47
2022-12-04T17:18:12.164Z,99838.72
2022-12-04T17:20:42.720Z,99834.06
2022-12-04T17:23:12.148Z,99831.78
2022-12-04T17:25:41.242Z,99825.03
2022-12-04T17:28:08.963Z,99828.06
2022-12-04T17:30:36.803Z,99819.75
2022-12-04T17:33:04.917Z,99823.22
2022-12-04T17:35:32.894Z,99818.53
2022-12-04T17:38:05.574Z,99819.06
2022-12-04T17:40:33.747Z,99811.78
2022-12-04T17:43:02.948Z,99813.91
2022-12-04T17:45:30.550Z,99806.19
2022-12-04T17:47:58.219Z,99797.88
2022-12-04T17:50:25.894Z,99787.28
2022-12-04T17:52:53.593Z,99797.25
2022-12-04T17:55:21.353Z,99791.88
2022-12-04T17:57:49.050Z,99787.78
2022-12-04T18:00:18.565Z,99788.03
2022-12-04T18:02:51.604Z,99777.69
2022-12-04T18:05:20.720Z,99775.72
2022-12-04T18:07:48.443Z,99780.50
2022-12-04T18:10:16.152Z,99791.78
2022-12-04T18:12:43.791Z,99793.44
2022-12-04T18:15:11.554Z,99790.13
2022-12-04T18:17:40.591Z,99794.09
2022-12-04T18:20:09.812Z,99796.00
2022-12-04T18:22:37.663Z,99797.31
2022-12-04T18:25:07.375Z,99799.03
2022-12-04T18:27:40.337Z,99809.75
2022-12-04T18:30:10.230Z,99808.19
2022-12-04T18:32:37.802Z,99806.34
2022-12-04T18:35:07.202Z,99827.22
2022-12-04T18:37:34.982Z,99833.91
2022-12-04T18:40:06.562Z,99836.19
2022-12-04T18:42:34.643Z,99838.63
2022-12-04T18:45:02.249Z,99825.13
2022-12-04T18:47:30.508Z,99828.94
2022-12-04T18:49:58.457Z,99811.56
2022-12-04T18:52:27.784Z,99801.56
2022-12-04T18:54:55.577Z,99806.41
2022-12-04T18:57:23.186Z,99809.25
2022-12-04T18:59:50.761Z,99814.38
2022-12-04T19:02:18.352Z,99815.63
2022-12-04T19:04:46.540Z,99823.28
2022-12-04T19:07:14.201Z,99816.53
2022-12-04T19:12:30.939Z,99827.19
2022-12-04T19:14:58.772Z,99818.19
2022-12-04T19:17:26.422Z,99833.25
2022-12-04T19:19:54.600Z,99823.28
2022-12-04T19:22:22.431Z,99842.50
2022-12-04T19:24:51.338Z,99842.66
2022-12-04T19:27:19.056Z,99854.03
2022-12-04T19:29:48.345Z,99851.00
2022-12-04T19:32:16.382Z,99845.69
2022-12-04T19:34:44.123Z,99848.50
2022-12-04T19:37:11.844Z,99858.84
2022-12-04T19:39:39.681Z,99860.75
2022-12-04T19:42:08.802Z,99865.69
2022-12-04T19:44:48.461Z,99859.56
2022-12-04T19:47:16.607Z,99861.16
2022-12-04T19:49:44.287Z,99853.50
2022-12-04T19:52:11.983Z,99849.06
2022-12-04T19:54:40.025Z,99855.34
2022-12-04T19:57:08.987Z,99852.69
2022-12-04T19:59:40.533Z,99850.06
2022-12-04T20:02:11.768Z,99858.19
2022-12-04T20:04:39.987Z,99852.22
2022-12-04T20:07:07.639Z,99850.88
2022-12-04T20:09:35.286Z,99850.47
2022-12-04T20:12:03.153Z,99856.91
2022-12-04T20:14:32.274Z,99853.63
2022-12-04T20:17:01.663Z,99858.09
2022-12-04T20:19:29.440Z,99867.44
2022-12-04T20:21:59.426Z,99857.97
2022-12-04T20:24:27.430Z,99865.53
2022-12-04T20:26:55.071Z,99858.09
2022-12-04T20:29:22.683Z,99863.72
2022-12-04T20:31:51.740Z,99877.31
2022-12-04T20:34:20.169Z,99879.69
2022-12-04T20:36:49.445Z,99877.56
2022-12-04T20:39:18.284Z,99890.56
2022-12-04T20:41:46.285Z,99885.91
2022-12-04T20:44:15.572Z,99883.25
2022-12-04T20:46:45.471Z,99883.84
2022-12-04T20:49:21.255Z,99870.44
2022-12-04T20:51:50.566Z,99872.50
2022-12-04T20:54:20.076Z,99876.81
2022-12-04T20:56:49.087Z,99878.44
2022-12-04T20:59:18.544Z,99873.97
2022-12-04T21:01:46.629Z,99872.09
2022-12-04T21:04:17.679Z,99878.00
2022-12-04T21:06:46.624Z,99875.66
2022-12-04T21:09:15.704Z,99881.44
2022-12-04T21:11:45.201Z,99883.91
2022-12-04T21:14:32.671Z,99885.75
2022-12-04T21:17:01.071Z,99891.25
2022-12-04T21:19:30.420Z,99898.00
2022-12-04T21:21:58.112Z,99896.09
2022-12-04T21:24:27.967Z,99898.94
2022-12-04T21:26:56.187Z,99901.47
2022-12-04T21:29:23.953Z,99899.25
2022-12-04T21:31:51.621Z,99896.53
2022-12-04T21:34:19.368Z,99895.09
2022-12-04T21:36:50.714Z,99894.44
2022-12-04T21:39:18.381Z,99887.38
2022-12-04T21:42:03.816Z,99888.72
2022-12-04T21:44:31.535Z,99892.44
2022-12-04T21:46:59.380Z,99893.81
2022-12-04T21:49:27.441Z,99894.44
2022-12-04T21:51:58.507Z,99893.13
2022-12-04T21:54:26.571Z,99901.50
2022-12-04T21:56:54.843Z,99907.06
2022-12-04T21:59:22.756Z,99902.31
2022-12-04T22:01:50.586Z,99898.94
2022-12-04T22:04:19.460Z,99906.91
2022-12-04T22:06:47.075Z,99902.31
2022-12-04T22:09:16.306Z,99906.72
2022-12-04T22:11:44.244Z,99901.28
2022-12-04T22:14:13.075Z,99902.78
2022-12-04T22:16:42.889Z,99901.41
2022-12-04T22:19:11.813Z,99901.34
2022-12-04T22:21:40.281Z,99896.03
2022-12-04T22:24:10.269Z,99906.72
2022-12-04T22:26:40.085Z,99905.97
2022-12-04T22:29:34.269Z,99903.38
2022-12-04T22:31:56.009Z,99908.72
2022-12-04T22:34:23.867Z,99901.50
2022-12-04T22:36:51.570Z,99907.06
2022-12-04T22:39:19.370Z,99908.13
2022-12-04T22:41:48.376Z,99904.38
2022-12-04T22:44:15.998Z,99905.31
2022-12-04T22:46:43.674Z,99907.88
2022-12-04T22:49:11.377Z,99916.75
2022-12-04T22:51:39.093Z,99911.53
2022-12-04T22:54:07.959Z,99903.81
2022-12-04T22:56:35.666Z,99904.50
2022-12-04T22:59:04.772Z,99904.81
2022-12-04T23:01:34.392Z,99896.03
2022-12-04T23:04:03.392Z,99898.41
2022-12-04T23:06:32.704Z,99904.72
2022-12-04T23:09:04.904Z,99902.91
2022-12-04T23:11:32.621Z,99904.97
2022-12-04T23:14:02.151Z,99907.19
2022-12-04T23:16:33.708Z,99908.22
2022-12-04T23:19:01.596Z,99906.63
2022-12-04T23:21:29.577Z,99904.13
2022-12-04T23:23:58.178Z,99906.56
2022-12-04T23:26:27.962Z,99907.03
2022-12-04T23:28:56.225Z,99911.03
2022-12-04T23:31:24.167Z,99919.28
2022-12-04T23:33:53.305Z,99922.44
2022-12-04T23:36:21.055Z,99925.94
2022-12-04T23:38:49.382Z,99928.75
2022-12-04T23:41:19.518Z,99920.13
2022-12-04T23:43:48.135Z,99931.78
2022-12-04T23:46:19.746Z,99934.13
2022-12-04T23:48:48.070Z,99935.50
2022-12-04T23:51:18.879Z,99932.91
2022-12-04T23:53:47.297Z,99928.97
2022-12-04T23:56:16.831Z,99927.91
2022-12-04T23:58:45.930Z,99920.63
